RAM740 GMMX-LFPO
Flight info
| Callsign | RAM740 |
|---|---|
| Flight time | N/A |
| Altitude | 36000 |
| Route | OBOGA UG850 VALBA UZ801 TOLSI UG5 KORIS L27 VJF DCT SVL DCT HIJ DCT RUSEM DCT SOTUK DCT USOKO DCT TLD DCT SIE DCT EDIGO DCT DGO L176 LUSEM DCT LULUT DCT TUDRA/N0375F280 DCT BEVOL UT158 AMB |
| Aircraft | B738/M-SDE2E3FGHIRWXY/LB1 |
Departure
| Time | 2026-04-28 18:29 |
|---|---|
| Airport | Marrakesh Menara Airport (GMMX) |
Arrival
| Time | N/A |
|---|---|
| Airport | Paris-Orly Airport (LFPO) |
| Time | Latitude | Longitude | Altitude | Speed | Heading |
|---|---|---|---|---|---|
| 2026-04-28 17:57 | 31.60368 | -8.02775 | 1544 ft | 0 kts | 185° |
| 2026-04-28 18:20 | 31.60382 | -8.02774 | 1544 ft | 4 kts | 183° |
| 2026-04-28 18:21 | 31.60409 | -8.02773 | 1541 ft | 4 kts | 176° |
| 2026-04-28 18:21 | 31.60435 | -8.02778 | 1538 ft | 4 kts | 165° |
| 2026-04-28 18:21 | 31.60454 | -8.02785 | 1544 ft | 1 kts | 156° |
| 2026-04-28 18:21 | 31.60456 | -8.02786 | 1537 ft | 0 kts | 156° |
| 2026-04-28 18:24 | 31.60455 | -8.02785 | 1544 ft | 1 kts | 154° |
| 2026-04-28 18:24 | 31.60439 | -8.02744 | 1487 ft | 6 kts | 99° |
| 2026-04-28 18:24 | 31.60434 | -8.02697 | 1545 ft | 6 kts | 95° |
| 2026-04-28 18:25 | 31.60430 | -8.02650 | 1546 ft | 6 kts | 96° |
| 2026-04-28 18:25 | 31.60426 | -8.02604 | 1541 ft | 6 kts | 95° |
| 2026-04-28 18:25 | 31.60422 | -8.02559 | 1547 ft | 6 kts | 96° |
| 2026-04-28 18:26 | 31.60414 | -8.02471 | 1548 ft | 5 kts | 95° |
| 2026-04-28 18:26 | 31.60411 | -8.02420 | 1544 ft | 8 kts | 95° |
| 2026-04-28 18:26 | 31.60403 | -8.02336 | 1549 ft | 13 kts | 97° |
| 2026-04-28 18:26 | 31.60391 | -8.02214 | 1550 ft | 16 kts | 96° |
| 2026-04-28 18:27 | 31.60384 | -8.02125 | 1552 ft | 8 kts | 96° |
| 2026-04-28 18:27 | 31.60382 | -8.02060 | 1552 ft | 8 kts | 72° |
| 2026-04-28 18:27 | 31.60430 | -8.02036 | 1552 ft | 8 kts | 7° |
| 2026-04-28 18:27 | 31.60484 | -8.02029 | 1552 ft | 8 kts | 6° |
| 2026-04-28 18:28 | 31.60537 | -8.02041 | 1551 ft | 8 kts | 317° |
| 2026-04-28 18:28 | 31.60552 | -8.02089 | 1550 ft | 0 kts | 279° |
| 2026-04-28 18:29 | 31.60577 | -8.02345 | 1542 ft | 71 kts | 275° |
| 2026-04-28 18:29 | 31.60652 | -8.03215 | 1527 ft | 141 kts | 276° |
| 2026-04-28 18:29 | 31.60745 | -8.04477 | 2044 ft | 155 kts | 272° |
| 2026-04-28 18:29 | 31.60825 | -8.05775 | 2788 ft | 164 kts | 275° |
| 2026-04-28 18:30 | 31.60955 | -8.07121 | 3640 ft | 166 kts | 276° |
| 2026-04-28 18:30 | 31.61045 | -8.08019 | 4197 ft | 169 kts | 277° |
| 2026-04-28 18:30 | 31.61227 | -8.09914 | 5132 ft | 189 kts | 276° |
| 2026-04-28 18:30 | 31.61383 | -8.11581 | 5356 ft | 220 kts | 276° |
| 2026-04-28 18:31 | 31.61556 | -8.13470 | 5662 ft | 243 kts | 276° |
| 2026-04-28 18:31 | 31.61752 | -8.15483 | 6289 ft | 253 kts | 281° |
| 2026-04-28 18:31 | 31.62462 | -8.17352 | 7107 ft | 257 kts | 308° |
| 2026-04-28 18:31 | 31.63801 | -8.18726 | 8015 ft | 260 kts | 330° |
| 2026-04-28 18:32 | 31.65540 | -8.19355 | 8845 ft | 267 kts | 356° |
| 2026-04-28 18:32 | 31.67380 | -8.19018 | 9689 ft | 272 kts | 24° |
| 2026-04-28 18:32 | 31.68911 | -8.17727 | 10450 ft | 276 kts | 51° |
| 2026-04-28 18:32 | 31.69800 | -8.15740 | 11209 ft | 277 kts | 77° |
| 2026-04-28 18:33 | 31.70180 | -8.13523 | 12059 ft | 278 kts | 82° |
| 2026-04-28 18:33 | 31.70507 | -8.11284 | 12874 ft | 281 kts | 83° |
| 2026-04-28 18:33 | 31.70827 | -8.09002 | 13720 ft | 284 kts | 83° |
| 2026-04-28 18:33 | 31.71145 | -8.06707 | 14463 ft | 287 kts | 84° |
| 2026-04-28 18:34 | 31.71468 | -8.04385 | 15208 ft | 290 kts | 84° |
| 2026-04-28 18:34 | 31.71795 | -8.02037 | 15955 ft | 293 kts | 84° |
| 2026-04-28 18:34 | 31.72125 | -7.99663 | 16692 ft | 296 kts | 84° |
| 2026-04-28 18:34 | 31.72589 | -7.97287 | 17396 ft | 304 kts | 69° |
| 2026-04-28 18:35 | 31.73759 | -7.95127 | 17763 ft | 326 kts | 53° |
| 2026-04-28 18:35 | 31.75277 | -7.93017 | 17949 ft | 349 kts | 51° |
| 2026-04-28 18:35 | 31.76931 | -7.90809 | 18121 ft | 370 kts | 51° |
| 2026-04-28 18:35 | 31.78689 | -7.88451 | 18443 ft | 385 kts | 51° |
| 2026-04-28 18:36 | 31.80426 | -7.86082 | 19014 ft | 389 kts | 51° |
| 2026-04-28 18:36 | 31.82180 | -7.83658 | 19702 ft | 390 kts | 52° |
| 2026-04-28 18:36 | 31.83937 | -7.81219 | 20361 ft | 392 kts | 52° |
| 2026-04-28 18:36 | 31.85773 | -7.78761 | 20970 ft | 397 kts | 50° |
| 2026-04-28 18:37 | 31.87617 | -7.76383 | 21544 ft | 400 kts | 49° |
| 2026-04-28 18:37 | 31.89512 | -7.73965 | 22147 ft | 404 kts | 49° |
| 2026-04-28 18:37 | 31.91420 | -7.71527 | 22733 ft | 407 kts | 50° |
| 2026-04-28 18:37 | 31.93368 | -7.69022 | 23310 ft | 411 kts | 50° |
| 2026-04-28 18:38 | 31.95300 | -7.66528 | 23805 ft | 414 kts | 50° |
| 2026-04-28 18:38 | 31.97217 | -7.64047 | 24281 ft | 416 kts | 50° |
| 2026-04-28 18:38 | 31.99169 | -7.61514 | 24777 ft | 418 kts | 50° |
| 2026-04-28 18:38 | 32.01131 | -7.58965 | 25242 ft | 421 kts | 50° |
| 2026-04-28 18:39 | 32.03102 | -7.56404 | 25685 ft | 424 kts | 50° |
| 2026-04-28 18:39 | 32.05093 | -7.53817 | 26129 ft | 427 kts | 49° |
| 2026-04-28 18:39 | 32.07364 | -7.51532 | 26525 ft | 434 kts | 32° |
| 2026-04-28 18:39 | 32.10143 | -7.50124 | 26943 ft | 440 kts | 15° |
| 2026-04-28 18:40 | 32.13190 | -7.49720 | 27369 ft | 444 kts | 0° |
| 2026-04-28 18:40 | 32.16288 | -7.49767 | 27781 ft | 446 kts | 359° |
| 2026-04-28 18:40 | 32.19408 | -7.49854 | 28145 ft | 450 kts | 359° |
| 2026-04-28 18:40 | 32.22549 | -7.49936 | 28512 ft | 453 kts | 359° |
| 2026-04-28 18:41 | 32.25709 | -7.50000 | 28875 ft | 457 kts | 360° |
| 2026-04-28 18:41 | 32.28905 | -7.50045 | 29197 ft | 461 kts | 0° |
| 2026-04-28 18:41 | 32.32079 | -7.50075 | 29552 ft | 463 kts | 0° |
| 2026-04-28 18:41 | 32.35305 | -7.50099 | 29968 ft | 464 kts | 0° |
| 2026-04-28 18:42 | 32.38577 | -7.50121 | 30320 ft | 465 kts | 0° |
| 2026-04-28 18:42 | 32.41779 | -7.50142 | 30654 ft | 466 kts | 0° |
| 2026-04-28 18:42 | 32.45021 | -7.50163 | 31056 ft | 465 kts | 0° |
| 2026-04-28 18:42 | 32.48251 | -7.50186 | 31509 ft | 463 kts | 0° |
| 2026-04-28 18:43 | 32.51468 | -7.50210 | 31930 ft | 462 kts | 0° |
| 2026-04-28 18:43 | 32.54686 | -7.50233 | 32305 ft | 462 kts | 0° |
| 2026-04-28 18:43 | 32.57901 | -7.50256 | 32673 ft | 462 kts | 1° |
| 2026-04-28 18:43 | 32.61117 | -7.50280 | 33059 ft | 462 kts | 1° |
| 2026-04-28 18:44 | 32.64323 | -7.50303 | 33442 ft | 461 kts | 1° |
| 2026-04-28 18:44 | 32.70743 | -7.50339 | 34075 ft | 462 kts | 0° |
| 2026-04-28 18:44 | 32.73964 | -7.50371 | 34370 ft | 462 kts | 0° |
| 2026-04-28 18:45 | 32.77170 | -7.50405 | 34666 ft | 461 kts | 0° |
| 2026-04-28 18:45 | 32.80379 | -7.50438 | 34948 ft | 462 kts | 0° |
| 2026-04-28 18:45 | 32.83596 | -7.50469 | 35245 ft | 461 kts | 360° |
| 2026-04-28 18:45 | 32.86801 | -7.50500 | 35531 ft | 461 kts | 360° |
| 2026-04-28 18:46 | 32.90013 | -7.50521 | 35808 ft | 461 kts | 360° |
| 2026-04-28 18:46 | 32.93221 | -7.50533 | 35932 ft | 464 kts | 360° |
| 2026-04-28 18:46 | 32.99663 | -7.50553 | 35931 ft | 465 kts | 360° |
| 2026-04-28 18:47 | 33.06055 | -7.50577 | 35919 ft | 456 kts | 360° |
| 2026-04-28 18:47 | 33.12387 | -7.50335 | 35923 ft | 455 kts | 9° |
| 2026-04-28 18:48 | 33.18527 | -7.48520 | 35942 ft | 455 kts | 16° |
| 2026-04-28 18:48 | 33.24607 | -7.46446 | 35940 ft | 455 kts | 16° |
| 2026-04-28 18:49 | 33.28689 | -7.45068 | 35941 ft | 455 kts | 16° |
| 2026-04-28 18:49 | 33.36803 | -7.42389 | 35943 ft | 455 kts | 15° |
| 2026-04-28 18:50 | 33.42919 | -7.40390 | 35931 ft | 455 kts | 15° |
| 2026-04-28 18:50 | 33.49031 | -7.38392 | 35937 ft | 456 kts | 15° |
| 2026-04-28 18:51 | 33.55112 | -7.36399 | 35912 ft | 456 kts | 15° |
| 2026-04-28 18:51 | 33.61240 | -7.34387 | 35910 ft | 456 kts | 15° |
| 2026-04-28 18:52 | 33.67360 | -7.32374 | 35910 ft | 457 kts | 15° |
| 2026-04-28 18:52 | 33.73493 | -7.30354 | 35911 ft | 457 kts | 15° |
| 2026-04-28 18:53 | 33.79619 | -7.28333 | 35913 ft | 457 kts | 15° |
| 2026-04-28 18:53 | 33.85752 | -7.26307 | 35916 ft | 457 kts | 15° |
| 2026-04-28 18:54 | 33.91883 | -7.24279 | 35924 ft | 457 kts | 15° |
| 2026-04-28 18:54 | 33.98015 | -7.22247 | 35921 ft | 457 kts | 15° |
| 2026-04-28 18:55 | 34.03108 | -7.20557 | 35926 ft | 457 kts | 15° |
| 2026-04-28 18:55 | 34.10231 | -7.18190 | 35922 ft | 457 kts | 15° |
| 2026-04-28 18:56 | 34.16356 | -7.16152 | 35926 ft | 457 kts | 15° |
| 2026-04-28 18:56 | 34.22489 | -7.14107 | 35927 ft | 457 kts | 15° |
| 2026-04-28 18:57 | 34.28619 | -7.12061 | 35917 ft | 457 kts | 15° |
| 2026-04-28 18:57 | 34.34745 | -7.10012 | 35920 ft | 457 kts | 15° |
| 2026-04-28 18:58 | 34.40839 | -7.07972 | 35924 ft | 457 kts | 15° |
| 2026-04-28 18:58 | 34.46978 | -7.05913 | 35913 ft | 457 kts | 15° |
| 2026-04-28 18:59 | 34.53110 | -7.03853 | 35908 ft | 458 kts | 15° |
| 2026-04-28 18:59 | 34.59245 | -7.01773 | 35907 ft | 458 kts | 18° |
| 2026-04-28 19:00 | 34.65051 | -6.98678 | 35915 ft | 456 kts | 28° |